Norfolk International Airport
KORF : now visible

Airfield :











YOU CAN JOIN US ON...

 
LOGIN :

Register | Disclaimer

   EN    FR    IT 

 









Legend :    VFR   Marginal VFR   IFR   Intensive IFR   Very Intensive IFR
Visi :
Ceiling :
>= 8 km
>= 3000ft
5 to 8 km
1000 to 3000 ft
1500m to 5 km
500 to 1000 ft
800 to 1500m
200 to 500 ft
< 800m
< 200 ft
Symbols :   Thunderstorms  Fog  Heavy snow  Heavy precipitations  Wind > 20 kt






- Airport Elevation : 26 ft
- IATA code : ORF


KORF - Norfolk International

CURRENT METAR :
  • 192251Z 26003KT 10SM BKN120 08/06 A2986 RMK AO2 SLP111 T00830061

EXPIRED METARs :
  • 192239Z 27003KT 10SM SCT013 OVC120 08/06 A2986 RMK AO2 T00830056
  • 192151Z 27004KT 10SM OVC012 08/06 A2985 RMK AO2 SLP107 T00830056
  • 192051Z 27005KT 10SM OVC011 09/06 A2984 RMK AO2 SLP103 T00890056 53002

TAF KORF
Valid from the 20 at 00:00 until the 21 at 00:00 UTC


192320Z 2000/2024 27004KT P6SM BKN120
FM200600 32007KT P6SM BKN100
FM201800 32013G20KT P6SM SCT070



MET'MAP, your aeronautical weather chart ! - Copyright ORBIFLY December 2007 - Disclaimer

ORBIFLY MET'MAP TEAM :

Programming & Development : Alexandra Zaïnal
Concept & Development : Baudouin d'Aumeries
Co-Development & Prog : Marc-Olivier Méhu
Technical & hardware support : Manuel Goepfert

Contact : metmap@orbifly.com




SOURCES & CREDITS :

   NOAA       Earth
Advisory